createdAt,value
2017-05-29T00:00:39.185Z,1011.46
2017-05-29T00:01:49.454Z,1011.42
2017-05-29T00:02:59.726Z,1011.42
2017-05-29T00:04:09.681Z,1011.44
2017-05-29T00:05:19.635Z,1011.45
2017-05-29T00:06:29.590Z,1011.44
2017-05-29T00:07:39.550Z,1011.42
2017-05-29T00:08:49.823Z,1011.47
2017-05-29T00:09:59.778Z,1011.46
2017-05-29T00:11:09.415Z,1011.43
2017-05-29T00:12:19.683Z,1011.43
2017-05-29T00:13:29.638Z,1011.35
2017-05-29T00:14:39.906Z,1011.38
2017-05-29T00:15:50.181Z,1011.38
2017-05-29T00:16:59.813Z,1011.4
2017-05-29T00:18:09.767Z,1011.41
2017-05-29T00:19:20.040Z,1011.36
2017-05-29T00:20:29.995Z,1011.37
2017-05-29T00:21:40.256Z,1011.35
2017-05-29T00:22:50.216Z,1011.33
2017-05-29T00:23:59.856Z,1011.34
2017-05-29T00:25:09.492Z,1011.31
2017-05-29T00:26:19.448Z,1011.27
2017-05-29T00:27:29.402Z,1011.25
2017-05-29T00:28:39.674Z,1011.22
2017-05-29T00:29:49.948Z,1011.19
2017-05-29T00:30:59.900Z,1011.14
2017-05-29T00:32:09.854Z,1011.16
2017-05-29T00:33:19.509Z,1011.14
2017-05-29T00:34:29.788Z,1011.13
2017-05-29T00:35:39.744Z,1011.12
2017-05-29T00:36:50.003Z,1011.15
2017-05-29T00:38:00.277Z,1011.12
2017-05-29T00:39:10.227Z,1011.1
2017-05-29T00:40:19.867Z,1011.16
2017-05-29T00:41:30.137Z,1011.12
2017-05-29T00:42:40.103Z,1011.14
2017-05-29T00:43:50.367Z,1011.18
2017-05-29T00:45:00.322Z,1011.17
2017-05-29T00:46:10.281Z,1011.19
2017-05-29T00:47:20.234Z,1011.22
2017-05-29T00:48:29.879Z,1011.21
2017-05-29T00:49:39.519Z,1011.18
2017-05-29T00:50:49.798Z,1011.19
2017-05-29T00:51:59.438Z,1011.19
2017-05-29T00:53:09.394Z,1011.24
2017-05-29T00:54:19.347Z,1011.22
2017-05-29T00:55:29.323Z,1011.17
2017-05-29T00:56:39.275Z,1011.18
2017-05-29T00:57:49.231Z,1011.15
2017-05-29T00:58:58.878Z,1011.18
2017-05-29T01:00:09.147Z,1011.16
2017-05-29T01:01:19.418Z,1011.15
2017-05-29T01:02:29.055Z,1011.16
2017-05-29T01:03:39.026Z,1011.17
2017-05-29T01:04:48.986Z,1011.15
2017-05-29T01:05:59.256Z,1011.19
2017-05-29T01:07:09.206Z,1011.2
2017-05-29T01:08:19.179Z,1011.19
2017-05-29T01:09:28.828Z,1011.21
2017-05-29T01:10:39.104Z,1011.25
2017-05-29T01:11:49.377Z,1011.25
2017-05-29T01:12:59.656Z,1011.2
2017-05-29T01:14:09.922Z,1011.19
2017-05-29T01:15:19.256Z,1011.13
2017-05-29T01:16:29.222Z,1011.14
2017-05-29T01:17:39.512Z,1011.12
2017-05-29T01:18:49.475Z,1011.13
2017-05-29T01:19:59.442Z,1011.1
2017-05-29T01:21:09.716Z,1011.1
2017-05-29T01:22:19.670Z,1011.09
2017-05-29T01:23:29.629Z,1011.08
2017-05-29T01:24:39.904Z,1011.04
2017-05-29T01:25:49.865Z,1011.04
2017-05-29T01:27:00.133Z,1011.02
2017-05-29T01:28:09.461Z,1011.01
2017-05-29T01:29:19.743Z,1011.01
2017-05-29T01:30:29.690Z,1010.99
2017-05-29T01:31:39.961Z,1010.99
2017-05-29T01:32:50.235Z,1010.96
2017-05-29T01:34:00.193Z,1010.95
2017-05-29T01:35:10.144Z,1010.96
2017-05-29T01:36:19.780Z,1010.94
2017-05-29T01:37:30.050Z,1010.89
2017-05-29T01:38:40.004Z,1010.93
2017-05-29T01:39:49.963Z,1010.96
2017-05-29T01:40:59.922Z,1010.98
2017-05-29T01:42:10.194Z,1011.01
2017-05-29T01:43:20.144Z,1010.95
2017-05-29T01:44:30.096Z,1010.95
2017-05-29T01:45:40.375Z,1010.92
2017-05-29T01:46:50.658Z,1010.93
2017-05-29T01:48:00.290Z,1010.97
2017-05-29T01:49:09.617Z,1010.94
2017-05-29T01:50:19.261Z,1010.95
2017-05-29T01:51:29.545Z,1010.9
2017-05-29T01:52:38.870Z,1010.93
2017-05-29T01:53:48.899Z,1010.93
2017-05-29T01:54:59.204Z,1010.91
2017-05-29T01:56:08.211Z,1010.89
2017-05-29T01:57:17.851Z,1010.88
2017-05-29T01:58:27.838Z,1010.88
2017-05-29T01:59:37.156Z,1010.87
2017-05-29T02:00:47.427Z,1010.86
2017-05-29T02:01:57.723Z,1010.86
2017-05-29T02:03:07.394Z,1010.85
2017-05-29T02:04:17.352Z,1010.84
2017-05-29T02:05:27.632Z,1010.83
2017-05-29T02:06:37.897Z,1010.86
2017-05-29T02:07:47.530Z,1010.84
2017-05-29T02:08:57.485Z,1010.83
2017-05-29T02:10:07.437Z,1010.82
2017-05-29T02:11:17.445Z,1010.83
2017-05-29T02:12:27.720Z,1010.84
2017-05-29T02:13:37.990Z,1010.85
2017-05-29T02:14:48.326Z,1010.84
2017-05-29T02:15:58.644Z,1010.82
2017-05-29T02:17:08.927Z,1010.81
2017-05-29T02:18:19.197Z,1010.8
2017-05-29T02:19:29.461Z,1010.76
2017-05-29T02:20:39.733Z,1010.76
2017-05-29T02:21:49.697Z,1010.74
2017-05-29T02:22:59.336Z,1010.68
2017-05-29T02:24:09.281Z,1010.69
2017-05-29T02:25:19.560Z,1010.68
2017-05-29T02:26:29.821Z,1010.73
2017-05-29T02:27:39.461Z,1010.69
2017-05-29T02:28:49.099Z,1010.71
2017-05-29T02:29:59.059Z,1010.74
2017-05-29T02:31:09.015Z,1010.71
2017-05-29T02:32:18.659Z,1010.68
2017-05-29T02:33:28.934Z,1010.67
2017-05-29T02:34:38.891Z,1010.64
2017-05-29T02:35:48.850Z,1010.65
2017-05-29T02:36:58.803Z,1010.68
2017-05-29T02:38:08.464Z,1010.67
2017-05-29T02:39:18.422Z,1010.7
2017-05-29T02:40:28.058Z,1010.71
2017-05-29T02:41:38.335Z,1010.68
2017-05-29T02:42:48.654Z,1010.7
2017-05-29T02:43:58.293Z,1010.69
2017-05-29T02:45:07.616Z,1010.69
2017-05-29T02:46:18.456Z,1010.63
2017-05-29T02:47:28.413Z,1010.66
2017-05-29T02:48:38.683Z,1010.7
2017-05-29T02:49:48.631Z,1010.67
2017-05-29T02:50:58.284Z,1010.66
2017-05-29T02:52:08.543Z,1010.67
2017-05-29T02:53:18.808Z,1010.65
2017-05-29T02:54:28.772Z,1010.62
2017-05-29T02:55:39.051Z,1010.67
2017-05-29T02:56:49.316Z,1010.63
2017-05-29T02:57:59.595Z,1010.67
2017-05-29T02:59:09.551Z,1010.66
2017-05-29T03:00:19.502Z,1010.68
2017-05-29T03:01:29.456Z,1010.67
2017-05-29T03:02:39.742Z,1010.68
2017-05-29T03:03:49.696Z,1010.69
2017-05-29T03:04:59.961Z,1010.68
2017-05-29T03:06:10.230Z,1010.66
2017-05-29T03:07:19.871Z,1010.66
2017-05-29T03:08:29.532Z,1010.67
2017-05-29T03:09:39.501Z,1010.66
2017-05-29T03:10:49.770Z,1010.64
2017-05-29T03:12:00.042Z,1010.62
2017-05-29T03:13:09.992Z,1010.62
2017-05-29T03:14:19.948Z,1010.63
2017-05-29T03:15:30.212Z,1010.65
2017-05-29T03:16:39.568Z,1010.63
2017-05-29T03:17:49.521Z,1010.66
2017-05-29T03:18:59.164Z,1010.69
2017-05-29T03:20:08.805Z,1010.69
2017-05-29T03:21:18.756Z,1010.67
2017-05-29T03:22:28.708Z,1010.64
2017-05-29T03:23:38.973Z,1010.61
2017-05-29T03:24:48.297Z,1010.63
2017-05-29T03:25:58.573Z,1010.66
2017-05-29T03:27:08.838Z,1010.66
2017-05-29T03:28:19.105Z,1010.7
2017-05-29T03:29:29.065Z,1010.73
2017-05-29T03:30:39.330Z,1010.75
2017-05-29T03:31:48.970Z,1010.71
2017-05-29T03:32:59.235Z,1010.75
2017-05-29T03:34:09.507Z,1010.76
2017-05-29T03:35:19.461Z,1010.74
2017-05-29T03:36:29.103Z,1010.76
2017-05-29T03:37:39.056Z,1010.75
2017-05-29T03:38:49.331Z,1010.77
2017-05-29T03:39:59.592Z,1010.81
2017-05-29T03:41:09.554Z,1010.85
2017-05-29T03:42:19.512Z,1010.87
2017-05-29T03:43:29.467Z,1010.85
2017-05-29T03:44:39.428Z,1010.86
2017-05-29T03:45:49.757Z,1010.87
2017-05-29T03:46:59.712Z,1010.88
2017-05-29T03:48:09.979Z,1010.88
2017-05-29T03:49:20.248Z,1010.91
2017-05-29T03:50:30.521Z,1010.9
2017-05-29T03:51:40.789Z,1010.91
2017-05-29T03:52:51.067Z,1010.91
2017-05-29T03:54:01.334Z,1010.88
2017-05-29T03:55:11.613Z,1010.9
2017-05-29T03:56:21.565Z,1010.89
2017-05-29T03:57:31.518Z,1010.88
2017-05-29T03:58:41.776Z,1010.88
2017-05-29T03:59:52.041Z,1010.9
2017-05-29T04:01:02.314Z,1010.87
2017-05-29T04:02:12.577Z,1010.87
2017-05-29T04:03:22.529Z,1010.92
2017-05-29T04:04:32.488Z,1010.89
2017-05-29T04:05:42.751Z,1010.93
2017-05-29T04:06:53.013Z,1010.94
2017-05-29T04:08:02.651Z,1010.95
2017-05-29T04:09:12.982Z,1011.03
2017-05-29T04:10:22.304Z,1011.04
2017-05-29T04:11:32.253Z,1011.03
2017-05-29T04:12:42.520Z,1011.01
2017-05-29T04:13:52.793Z,1010.99
2017-05-29T04:15:03.066Z,1010.96
2017-05-29T04:16:12.703Z,1010.96
2017-05-29T04:17:22.978Z,1010.93
2017-05-29T04:18:32.919Z,1010.94
2017-05-29T04:19:42.883Z,1010.95
2017-05-29T04:20:52.524Z,1010.95
2017-05-29T04:22:02.797Z,1010.91
2017-05-29T04:23:12.495Z,1010.99
2017-05-29T04:24:22.757Z,1010.99
2017-05-29T04:25:32.710Z,1011.02
2017-05-29T04:26:42.663Z,1011.01
2017-05-29T04:27:52.303Z,1010.98
2017-05-29T04:29:01.630Z,1010.99
2017-05-29T04:30:11.905Z,1010.97
2017-05-29T04:31:22.175Z,1011
2017-05-29T04:32:32.445Z,1011.04
2017-05-29T04:33:42.089Z,1011.05
2017-05-29T04:34:52.358Z,1011.09
2017-05-29T04:36:02.333Z,1011.11
2017-05-29T04:37:11.972Z,1011.11
2017-05-29T04:38:21.921Z,1011.13
2017-05-29T04:39:31.876Z,1011.14
2017-05-29T04:40:41.225Z,1011.12
2017-05-29T04:41:51.172Z,1011.19
2017-05-29T04:43:01.440Z,1011.21
2017-05-29T04:44:11.713Z,1011.19
2017-05-29T04:45:21.988Z,1011.22
2017-05-29T04:46:31.627Z,1011.22
2017-05-29T04:47:41.888Z,1011.2
2017-05-29T04:48:52.159Z,1011.24
2017-05-29T04:50:01.857Z,1011.23
2017-05-29T04:51:10.869Z,1011.23
2017-05-29T04:52:21.149Z,1011.24
2017-05-29T04:53:31.416Z,1011.25
2017-05-29T04:54:41.375Z,1011.2
2017-05-29T04:55:51.379Z,1011.24
2017-05-29T04:57:01.647Z,1011.23
2017-05-29T04:58:11.922Z,1011.29
2017-05-29T04:59:22.192Z,1011.3
2017-05-29T05:00:32.145Z,1011.34
2017-05-29T05:01:42.417Z,1011.31
2017-05-29T05:02:52.692Z,1011.31
2017-05-29T05:04:02.332Z,1011.35
2017-05-29T05:05:12.597Z,1011.4
2017-05-29T05:06:22.861Z,1011.44
2017-05-29T05:07:32.180Z,1011.4
2017-05-29T05:08:42.456Z,1011.39
2017-05-29T05:09:52.729Z,1011.41
2017-05-29T05:11:02.057Z,1011.41
2017-05-29T05:12:12.013Z,1011.43
2017-05-29T05:13:22.283Z,1011.41
2017-05-29T05:14:32.243Z,1011.44
2017-05-29T05:15:41.891Z,1011.43
2017-05-29T05:16:51.849Z,1011.41
2017-05-29T05:18:02.113Z,1011.38
2017-05-29T05:19:11.756Z,1011.43
2017-05-29T05:20:21.081Z,1011.42
2017-05-29T05:21:30.713Z,1011.45
2017-05-29T05:22:40.662Z,1011.48
2017-05-29T05:23:50.298Z,1011.53
2017-05-29T05:25:00.254Z,1011.53
2017-05-29T05:26:09.896Z,1011.48
2017-05-29T05:27:19.854Z,1011.49
2017-05-29T05:28:29.804Z,1011.51
2017-05-29T05:29:39.772Z,1011.49
2017-05-29T05:30:49.408Z,1011.48
2017-05-29T05:31:59.670Z,1011.48
2017-05-29T05:33:09.321Z,1011.47
2017-05-29T05:34:19.595Z,1011.42
2017-05-29T05:35:29.233Z,1011.44
2017-05-29T05:36:39.511Z,1011.44
2017-05-29T05:37:49.784Z,1011.46
2017-05-29T05:39:00.055Z,1011.42
2017-05-29T05:40:10.393Z,1011.45
2017-05-29T05:41:20.343Z,1011.47
2017-05-29T05:42:29.987Z,1011.48
2017-05-29T05:43:39.948Z,1011.49
2017-05-29T05:44:49.912Z,1011.47
2017-05-29T05:46:00.182Z,1011.52
2017-05-29T05:47:10.454Z,1011.47
2017-05-29T05:48:20.140Z,1011.46
2017-05-29T05:49:30.406Z,1011.46
2017-05-29T05:50:40.362Z,1011.44
2017-05-29T05:51:50.632Z,1011.43
2017-05-29T05:53:00.590Z,1011.42
2017-05-29T05:54:10.858Z,1011.44
2017-05-29T05:55:21.124Z,1011.38
2017-05-29T05:56:31.474Z,1011.34
2017-05-29T05:57:41.440Z,1011.34
2017-05-29T05:58:51.726Z,1011.36
2017-05-29T06:00:01.684Z,1011.31
2017-05-29T06:01:11.640Z,1011.33
2017-05-29T06:02:21.925Z,1011.32
2017-05-29T06:03:32.207Z,1011.33
2017-05-29T06:04:42.161Z,1011.3
2017-05-29T06:05:52.432Z,1011.27
2017-05-29T06:07:02.389Z,1011.25
2017-05-29T06:08:12.029Z,1011.27
2017-05-29T06:09:22.296Z,1011.25
2017-05-29T06:10:32.253Z,1011.25
2017-05-29T06:11:42.527Z,1011.22
2017-05-29T06:12:52.794Z,1011.23
2017-05-29T06:14:03.072Z,1011.26
2017-05-29T06:15:13.030Z,1011.22
2017-05-29T06:16:23.009Z,1011.22
2017-05-29T06:17:32.645Z,1011.22
2017-05-29T06:18:42.606Z,1011.2
2017-05-29T06:19:52.876Z,1011.2
2017-05-29T06:21:02.843Z,1011.2
2017-05-29T06:22:12.483Z,1011.26
2017-05-29T06:23:22.432Z,1011.25
2017-05-29T06:24:32.077Z,1011.27
2017-05-29T06:25:42.029Z,1011.26
2017-05-29T06:26:51.989Z,1011.26
2017-05-29T06:28:02.271Z,1011.27
2017-05-29T06:29:12.553Z,1011.21
2017-05-29T06:30:22.834Z,1011.21
2017-05-29T06:31:33.099Z,1011.17
2017-05-29T06:32:43.055Z,1011.15
2017-05-29T06:33:53.348Z,1011.11
2017-05-29T06:35:03.314Z,1011.13
2017-05-29T06:36:13.269Z,1011.14
2017-05-29T06:37:23.546Z,1011.15
2017-05-29T06:38:33.504Z,1011.12
2017-05-29T06:39:43.143Z,1011.13
2017-05-29T06:40:53.090Z,1011.08
2017-05-29T06:42:02.409Z,1011.12
2017-05-29T06:43:12.052Z,1011.1
2017-05-29T06:44:22.319Z,1011.09
2017-05-29T06:45:32.589Z,1011.1
2017-05-29T06:46:42.231Z,1011.12
2017-05-29T06:47:52.502Z,1011.11
2017-05-29T06:49:02.774Z,1011.12
2017-05-29T06:50:12.738Z,1011.12
2017-05-29T06:51:22.374Z,1011.09
2017-05-29T06:52:32.641Z,1011.08
2017-05-29T06:53:42.298Z,1011.1
2017-05-29T06:54:52.562Z,1011.1
2017-05-29T06:56:02.518Z,1011.08
2017-05-29T06:57:12.471Z,1011.12
2017-05-29T06:58:22.115Z,1011.12
2017-05-29T06:59:32.066Z,1011.1
2017-05-29T07:00:42.050Z,1011.08
2017-05-29T07:01:52.319Z,1011.07
2017-05-29T07:03:02.276Z,1011.02
2017-05-29T07:04:12.545Z,1011.03
2017-05-29T07:05:22.503Z,1011
2017-05-29T07:06:31.827Z,1011
2017-05-29T07:07:41.802Z,1010.98
2017-05-29T07:08:52.072Z,1011.03
2017-05-29T07:10:02.039Z,1011.03
2017-05-29T07:11:11.992Z,1010.98
2017-05-29T07:12:21.948Z,1010.98
2017-05-29T07:13:31.590Z,1010.95
2017-05-29T07:14:41.548Z,1010.98
2017-05-29T07:15:51.506Z,1010.96
2017-05-29T07:17:01.772Z,1010.97
2017-05-29T07:18:12.046Z,1010.99
2017-05-29T07:19:21.998Z,1010.98
2017-05-29T07:20:31.958Z,1010.98
2017-05-29T07:21:41.912Z,1010.98
2017-05-29T07:22:52.182Z,1010.99
2017-05-29T07:24:02.453Z,1010.94
2017-05-29T07:25:12.090Z,1010.95
2017-05-29T07:26:22.355Z,1010.93
2017-05-29T07:27:32.324Z,1010.93
2017-05-29T07:28:42.285Z,1010.89
2017-05-29T07:29:52.554Z,1010.84
2017-05-29T07:31:02.831Z,1010.85
2017-05-29T07:32:13.159Z,1010.87
2017-05-29T07:33:23.123Z,1010.87
2017-05-29T07:34:33.392Z,1010.85
2017-05-29T07:35:42.717Z,1010.86
2017-05-29T07:36:52.672Z,1010.87
2017-05-29T07:38:02.313Z,1010.85
2017-05-29T07:39:12.282Z,1010.86
2017-05-29T07:40:22.238Z,1010.89
2017-05-29T07:41:31.876Z,1010.87
2017-05-29T07:42:42.224Z,1010.88
2017-05-29T07:43:51.867Z,1010.91
2017-05-29T07:45:02.135Z,1010.86
2017-05-29T07:46:12.407Z,1010.85
2017-05-29T07:47:21.727Z,1010.84
2017-05-29T07:48:31.051Z,1010.8
2017-05-29T07:49:41.323Z,1010.81
2017-05-29T07:50:51.290Z,1010.79
2017-05-29T07:52:00.933Z,1010.82
2017-05-29T07:53:10.601Z,1010.83
2017-05-29T07:54:20.557Z,1010.85
2017-05-29T07:55:30.509Z,1010.83
2017-05-29T07:56:40.787Z,1010.84
2017-05-29T07:57:50.422Z,1010.84
2017-05-29T07:59:00.376Z,1010.85
2017-05-29T08:00:10.014Z,1010.84
2017-05-29T08:01:19.343Z,1010.84
2017-05-29T08:02:29.294Z,1010.8
2017-05-29T08:03:39.242Z,1010.84
2017-05-29T08:04:49.511Z,1010.84
2017-05-29T08:05:59.789Z,1010.79
2017-05-29T08:07:10.065Z,1010.81
2017-05-29T08:08:20.020Z,1010.76
2017-05-29T08:09:29.337Z,1010.77
2017-05-29T08:10:39.298Z,1010.78
2017-05-29T08:11:49.625Z,1010.77
2017-05-29T08:12:59.895Z,1010.74
2017-05-29T08:14:09.537Z,1010.71
2017-05-29T08:15:19.496Z,1010.74
2017-05-29T08:16:29.767Z,1010.73
2017-05-29T08:17:39.725Z,1010.69
2017-05-29T08:18:49.369Z,1010.71
2017-05-29T08:19:59.647Z,1010.7
2017-05-29T08:21:09.604Z,1010.7
2017-05-29T08:22:19.250Z,1010.66
2017-05-29T08:23:29.515Z,1010.7
2017-05-29T08:24:39.785Z,1010.69
2017-05-29T08:25:50.053Z,1010.66
2017-05-29T08:26:59.692Z,1010.69
2017-05-29T08:28:09.344Z,1010.67
2017-05-29T08:29:19.314Z,1010.66
2017-05-29T08:30:29.582Z,1010.69
2017-05-29T08:31:39.531Z,1010.65
2017-05-29T08:32:49.489Z,1010.66
2017-05-29T08:33:59.194Z,1010.68
2017-05-29T08:35:08.509Z,1010.68
2017-05-29T08:36:18.150Z,1010.66
2017-05-29T08:37:27.797Z,1010.7
2017-05-29T08:38:37.759Z,1010.69
2017-05-29T08:39:48.028Z,1010.72
2017-05-29T08:40:57.984Z,1010.72
2017-05-29T08:42:08.258Z,1010.72
2017-05-29T08:43:17.890Z,1010.72
2017-05-29T08:44:27.847Z,1010.71
2017-05-29T08:45:37.806Z,1010.7
2017-05-29T08:46:47.759Z,1010.67
2017-05-29T08:47:57.399Z,1010.68
2017-05-29T08:49:07.668Z,1010.66
2017-05-29T08:50:17.630Z,1010.65
2017-05-29T08:51:27.575Z,1010.63
2017-05-29T08:52:37.213Z,1010.64
2017-05-29T08:53:46.902Z,1010.66
2017-05-29T08:54:56.534Z,1010.66
2017-05-29T08:56:06.811Z,1010.66
2017-05-29T08:57:16.767Z,1010.69
2017-05-29T08:58:26.405Z,1010.65
2017-05-29T08:59:36.044Z,1010.64
2017-05-29T09:00:46.313Z,1010.64
2017-05-29T09:01:56.265Z,1010.69
2017-05-29T09:03:05.952Z,1010.69
2017-05-29T09:04:15.590Z,1010.64
2017-05-29T09:05:25.223Z,1010.61
2017-05-29T09:06:34.854Z,1010.58
2017-05-29T09:07:44.495Z,1010.61
2017-05-29T09:08:54.761Z,1010.6
2017-05-29T09:10:05.040Z,1010.55
2017-05-29T09:11:15.305Z,1010.58
2017-05-29T09:12:25.574Z,1010.57
2017-05-29T09:13:35.838Z,1010.52
2017-05-29T09:14:46.111Z,1010.51
2017-05-29T09:15:56.067Z,1010.56
2017-05-29T09:17:05.701Z,1010.55
2017-05-29T09:18:15.653Z,1010.56
2017-05-29T09:19:25.605Z,1010.56
2017-05-29T09:20:35.251Z,1010.56
2017-05-29T09:21:45.522Z,1010.56
2017-05-29T09:22:55.495Z,1010.5
2017-05-29T09:24:05.801Z,1010.5
2017-05-29T09:25:15.757Z,1010.51
2017-05-29T09:26:25.707Z,1010.55
2017-05-29T09:27:35.973Z,1010.57
2017-05-29T09:28:45.925Z,1010.56
2017-05-29T09:29:55.243Z,1010.55
2017-05-29T09:31:04.887Z,1010.54
2017-05-29T09:32:14.840Z,1010.58
2017-05-29T09:33:24.509Z,1010.61
2017-05-29T09:34:34.773Z,1010.57
2017-05-29T09:35:44.414Z,1010.55
2017-05-29T09:36:54.048Z,1010.55
2017-05-29T09:38:04.007Z,1010.57
2017-05-29T09:39:13.650Z,1010.6
2017-05-29T09:40:23.612Z,1010.62
2017-05-29T09:41:33.563Z,1010.54
2017-05-29T09:42:43.201Z,1010.56
2017-05-29T09:43:52.846Z,1010.54
2017-05-29T09:45:02.804Z,1010.5
2017-05-29T09:46:12.128Z,1010.53
2017-05-29T09:47:21.769Z,1010.53
2017-05-29T09:48:31.410Z,1010.58
2017-05-29T09:49:41.369Z,1010.59
2017-05-29T09:50:51.332Z,1010.56
2017-05-29T09:52:01.279Z,1010.56
2017-05-29T09:53:11.230Z,1010.62
2017-05-29T09:54:21.190Z,1010.56
2017-05-29T09:55:31.150Z,1010.56
2017-05-29T09:56:41.119Z,1010.56
2017-05-29T09:57:51.384Z,1010.53
2017-05-29T09:59:01.346Z,1010.55
2017-05-29T10:00:11.300Z,1010.55
2017-05-29T10:01:20.309Z,1010.52
2017-05-29T10:02:29.946Z,1010.52
2017-05-29T10:03:40.218Z,1010.51
2017-05-29T10:04:49.857Z,1010.54
2017-05-29T10:05:59.814Z,1010.53
2017-05-29T10:07:09.786Z,1010.52
2017-05-29T10:08:20.057Z,1010.53
2017-05-29T10:09:30.082Z,1010.51
2017-05-29T10:10:40.359Z,1010.48
2017-05-29T10:11:50.001Z,1010.5
2017-05-29T10:12:59.952Z,1010.59
2017-05-29T10:14:09.595Z,1010.51
2017-05-29T10:15:19.860Z,1010.45
2017-05-29T10:16:29.815Z,1010.47
2017-05-29T10:17:39.800Z,1010.39
2017-05-29T10:18:50.084Z,1010.38
2017-05-29T10:20:00.042Z,1010.34
2017-05-29T10:21:09.997Z,1010.33
2017-05-29T10:22:19.955Z,1010.35
2017-05-29T10:23:30.229Z,1010.32
2017-05-29T10:24:39.866Z,1010.33
2017-05-29T10:25:49.816Z,1010.32
2017-05-29T10:26:59.772Z,1010.32
2017-05-29T10:28:10.051Z,1010.36
2017-05-29T10:29:19.706Z,1010.34
2017-05-29T10:30:29.344Z,1010.34
2017-05-29T10:31:38.668Z,1010.29
2017-05-29T10:32:48.937Z,1010.29
2017-05-29T10:34:00.142Z,1010.27
2017-05-29T10:35:10.598Z,1010.26
2017-05-29T10:36:21.429Z,1010.3
2017-05-29T10:37:32.627Z,1010.31
2017-05-29T10:38:43.879Z,1010.25
2017-05-29T10:39:54.345Z,1010.27
2017-05-29T10:41:05.565Z,1010.25
2017-05-29T10:42:15.948Z,1010.27
2017-05-29T10:43:27.099Z,1010.24
2017-05-29T10:44:38.370Z,1010.26
2017-05-29T10:45:48.791Z,1010.28
2017-05-29T10:46:59.518Z,1010.25
2017-05-29T10:48:10.019Z,1010.29
2017-05-29T10:49:19.763Z,1010.29
2017-05-29T10:50:30.564Z,1010.33
2017-05-29T10:51:40.974Z,1010.29
2017-05-29T10:52:51.382Z,1010.36
2017-05-29T10:54:01.406Z,1010.34
2017-05-29T10:55:11.755Z,1010.24
2017-05-29T10:56:22.512Z,1010.29
2017-05-29T10:57:33.031Z,1010.22
2017-05-29T10:58:43.212Z,1010.27
2017-05-29T10:59:53.611Z,1010.26
2017-05-29T11:01:03.957Z,1010.27
2017-05-29T11:02:14.180Z,1010.29
2017-05-29T11:03:24.658Z,1010.25
2017-05-29T11:04:34.155Z,1010.24
2017-05-29T11:05:44.341Z,1010.23
2017-05-29T11:06:54.844Z,1010.28
2017-05-29T11:08:05.377Z,1010.31
2017-05-29T11:09:15.591Z,1010.31
2017-05-29T11:10:26.804Z,1010.24
2017-05-29T11:11:37.652Z,1010.21
2017-05-29T11:12:48.493Z,1010.26
2017-05-29T11:13:59.684Z,1010.28
2017-05-29T11:15:09.950Z,1010.31
2017-05-29T11:16:20.960Z,1010.23
2017-05-29T11:17:31.226Z,1010.3
2017-05-29T11:18:42.216Z,1010.31
2017-05-29T11:19:52.927Z,1010.32
2017-05-29T11:21:03.940Z,1010.31
2017-05-29T11:22:13.891Z,1010.29
2017-05-29T11:23:24.867Z,1010.34
2017-05-29T11:24:35.514Z,1010.33
2017-05-29T11:25:46.475Z,1010.3
2017-05-29T11:26:57.451Z,1010.36
2017-05-29T11:28:08.551Z,1010.26
2017-05-29T11:29:19.167Z,1010.26
2017-05-29T11:30:30.313Z,1010.26
2017-05-29T11:31:41.121Z,1010.23
2017-05-29T11:32:52.158Z,1010.25
2017-05-29T11:34:03.054Z,1010.23
2017-05-29T11:35:13.047Z,1010.23
2017-05-29T11:36:22.935Z,1010.23
2017-05-29T11:37:33.435Z,1010.21
2017-05-29T11:38:43.933Z,1010.13
2017-05-29T11:39:54.416Z,1010.14
2017-05-29T11:41:05.026Z,1010.1
2017-05-29T11:42:15.475Z,1010.1
2017-05-29T11:43:26.270Z,1010.12
2017-05-29T11:44:37.249Z,1010.1
2017-05-29T11:45:48.199Z,1010.11
2017-05-29T11:46:59.205Z,1010.08
2017-05-29T11:48:09.566Z,1010.08
2017-05-29T11:49:19.855Z,1010.1
2017-05-29T11:50:30.439Z,1010.08
2017-05-29T11:51:40.666Z,1010.05
2017-05-29T11:52:50.809Z,1010.12
2017-05-29T11:54:01.323Z,1010.11
2017-05-29T11:55:11.884Z,1010.08
2017-05-29T11:56:21.734Z,1010.06
2017-05-29T11:57:31.257Z,1010.09
2017-05-29T11:58:41.490Z,1010.03
2017-05-29T11:59:51.344Z,1010.12
2017-05-29T12:01:01.814Z,1010.05
2017-05-29T12:02:12.257Z,1010.14
2017-05-29T12:03:22.387Z,1010.06
2017-05-29T12:04:32.200Z,1010.04
2017-05-29T12:05:42.687Z,1009.97
2017-05-29T12:06:53.024Z,1010
2017-05-29T12:08:03.288Z,1009.98
2017-05-29T12:09:12.925Z,1009.93
2017-05-29T12:10:22.249Z,1009.92
2017-05-29T12:11:31.566Z,1009.92
2017-05-29T12:12:41.843Z,1009.91
2017-05-29T12:13:51.480Z,1009.83
2017-05-29T12:15:01.742Z,1009.76
2017-05-29T12:16:12.010Z,1009.72
2017-05-29T12:17:21.964Z,1009.82
2017-05-29T12:18:31.916Z,1009.8
2017-05-29T12:19:41.550Z,1009.88
2017-05-29T12:20:51.499Z,1009.85
2017-05-29T12:22:01.763Z,1009.84
2017-05-29T12:23:11.738Z,1009.74
2017-05-29T12:24:22.006Z,1009.69
2017-05-29T12:25:31.978Z,1009.81
2017-05-29T12:26:42.249Z,1009.69
2017-05-29T12:27:52.202Z,1009.76
2017-05-29T12:29:02.153Z,1009.78
2017-05-29T12:30:11.800Z,1009.73
2017-05-29T12:31:21.750Z,1009.74
2017-05-29T12:32:31.701Z,1009.72
2017-05-29T12:33:41.654Z,1009.74
2017-05-29T12:34:51.297Z,1009.69
2017-05-29T12:36:01.250Z,1009.72
2017-05-29T12:37:11.203Z,1009.78
2017-05-29T12:38:20.539Z,1009.78
2017-05-29T12:39:30.489Z,1009.74
2017-05-29T12:40:40.766Z,1009.73
2017-05-29T12:41:50.714Z,1009.71
2017-05-29T12:43:00.670Z,1009.65
2017-05-29T12:44:10.304Z,1009.74
2017-05-29T12:45:20.267Z,1009.71
2017-05-29T12:46:30.235Z,1009.66
2017-05-29T12:47:39.869Z,1009.56
2017-05-29T12:48:49.508Z,1009.51
2017-05-29T12:49:59.458Z,1009.51
2017-05-29T12:51:08.793Z,1009.51
2017-05-29T12:52:19.063Z,1009.54
2017-05-29T12:53:29.331Z,1009.53
2017-05-29T12:54:39.603Z,1009.51
2017-05-29T12:55:49.565Z,1009.52
2017-05-29T12:56:59.525Z,1009.53
2017-05-29T12:58:09.483Z,1009.52
2017-05-29T12:59:19.121Z,1009.49
2017-05-29T13:00:29.078Z,1009.41
2017-05-29T13:01:39.039Z,1009.35
2017-05-29T13:02:48.990Z,1009.38
2017-05-29T13:03:58.943Z,1009.37
2017-05-29T13:05:09.233Z,1009.32
2017-05-29T13:06:19.188Z,1009.32
2017-05-29T13:07:28.828Z,1009.32
2017-05-29T13:08:39.091Z,1009.24
2017-05-29T13:09:48.730Z,1009.28
2017-05-29T13:10:58.683Z,1009.3
2017-05-29T13:12:08.953Z,1009.31
2017-05-29T13:13:18.295Z,1009.31
2017-05-29T13:14:27.925Z,1009.3
2017-05-29T13:15:37.570Z,1009.26
2017-05-29T13:16:47.520Z,1009.24
2017-05-29T13:17:57.811Z,1009.23
2017-05-29T13:19:07.772Z,1009.2
2017-05-29T13:20:17.408Z,1009.19
2017-05-29T13:21:27.364Z,1009.2
2017-05-29T13:22:37.636Z,1009.14
2017-05-29T13:23:47.905Z,1009.12
2017-05-29T13:24:58.165Z,1009.12
2017-05-29T13:26:08.493Z,1009.08
2017-05-29T13:27:18.450Z,1009.09
2017-05-29T13:28:28.714Z,1009.03
2017-05-29T13:29:38.400Z,1009
2017-05-29T13:30:48.038Z,1008.97
2017-05-29T13:31:58.306Z,1009.01
2017-05-29T13:33:07.940Z,1008.98
2017-05-29T13:34:18.212Z,1008.94
2017-05-29T13:35:28.163Z,1008.92
2017-05-29T13:36:38.441Z,1008.91
2017-05-29T13:37:48.395Z,1008.9
2017-05-29T13:38:58.354Z,1008.9
2017-05-29T13:40:08.308Z,1008.88
2017-05-29T13:41:17.328Z,1008.9
2017-05-29T13:42:27.603Z,1008.89
2017-05-29T13:43:37.873Z,1008.91
2017-05-29T13:44:47.816Z,1008.97
2017-05-29T13:45:57.771Z,1008.92
2017-05-29T13:47:07.414Z,1008.95
2017-05-29T13:48:17.366Z,1008.94
2017-05-29T13:49:27.637Z,1008.93
2017-05-29T13:50:37.279Z,1008.97
2017-05-29T13:51:47.579Z,1008.99
2017-05-29T13:52:57.858Z,1008.93
2017-05-29T13:54:08.127Z,1008.93
2017-05-29T13:55:17.760Z,1008.91
2017-05-29T13:56:27.406Z,1008.88
2017-05-29T13:57:37.047Z,1008.91
2017-05-29T13:58:47.004Z,1008.87
2017-05-29T13:59:56.951Z,1008.85
2017-05-29T14:01:07.230Z,1008.83
2017-05-29T14:02:17.499Z,1008.84
2017-05-29T14:03:27.831Z,1008.84
2017-05-29T14:04:38.093Z,1008.88
2017-05-29T14:05:48.045Z,1008.88
2017-05-29T14:06:58.321Z,1008.84
2017-05-29T14:08:07.958Z,1008.86
2017-05-29T14:09:17.601Z,1008.91